Tiempo atmosférico en la estación meteorológica de Hijar, Teruel (300 m.)



Fecha
DESCASC
Temp. máxima en grados centígrados (hora)
DESCASC
Temp. mínima en grados centígrados (hora)
DESCASC
Temp. media en grados centígrados
DESCASC
Racha de viento máxima en m/sg (hora)
DESCASC
Velocidad máxima media en intervalos de 10 minutos(hora)
DESCASC
Precipitaciones diarias en mm
DESCASC
Precipitaciones de 00:00 a 06:00 en mm
DESCASC
Precipitaciones de 06:00 a 12:00 en mm
DESCASC
Precipitaciones de 12:00 a 18:00 en mm
DESCASC
Precipitaciones de 18:00 a 24:00 en mm
DESCASC
02-08-2020 33.2 (15:10) 19.9 (07:10) 26.6 10.56 (17:50) 5 (00:40) 0 0 0 0 0
01-08-2020 38.5 (15:50) 21.9 (06:30) 30.2 10.83 (23:50) 6.39 (23:50) 0 0 0 0 0
31-07-2020 41.3 (15:50) 20.6 (07:30) 30.9 11.39 (20:00) 7.5 (20:00) 0 0 0 0 0
30-07-2020 38.9 (15:40) 20.2 (00:00) 29.6 22.22 (17:20) 12.5 (17:00) 0 0 0 0 0
29-07-2020 35.7 (16:40) 22.6 (00:00) 29.2 10.83 (19:40) 6.67 (19:40) 0 0 0 0 0
28-07-2020 37.9 (18:00) 23.2 (07:10) 30.6 9.17 (18:10) 6.67 (20:30) 0 0 0 0 0
27-07-2020 39.8 (17:00) 20.4 (00:00) 30.1 14.72 (22:20) 10.28 (22:30) 0 0 0 0 0
26-07-2020 36.5 (16:10) 20.6 (00:00) 28.6 6.11 (19:20) 3.89 (21:40) 0 0 0 0 0
25-07-2020 35.2 (17:30) 18.6 (06:50) 26.9 7.22 (00:10) 3.89 (23:59) 0 0 0 0 0
24-07-2020 35.8 (17:40) 20 (00:00) 27.9 8.61 (01:30) 5.28 (01:10) 0 0 0 0 0
23-07-2020 38.2 (16:40) 18.4 (00:00) 28.3 6.67 (23:50) 3.89 (23:59) 0 0 0 0 0
22-07-2020 35.9 (17:00) 19.8 (06:40) 27.9 9.44 (18:20) 6.67 (18:20) 0 0 0 0 0
21-07-2020 36.8 (17:00) 19.3 (00:00) 28 12.5 (17:40) 7.22 (18:00) 0 0 0 0 0
20-07-2020 35.7 (15:30) 19.8 (07:00) 27.8 15.28 (19:40) 7.5 (19:00) 0 0 0 0 0
19-07-2020 37.4 (16:30) 17.6 (00:00) 27.5 10 (20:20) 7.22 (20:00) 0 0 0 0 0
18-07-2020 34.5 (16:50) 15.9 (00:00) 25.2 8.06 (00:20) 5 (00:10) 0 0 0 0 0
17-07-2020 32.5 (16:20) 16.4 (00:00) 24.4 11.11 (09:30) 5.83 (09:30) 0 0 0 0 0
16-07-2020 33.1 (17:20) 15.8 (00:00) 24.4 9.44 (02:40) 5.83 (01:10) 0 0 0 0 0
15-07-2020 31.3 (16:30) 15.4 (06:40) 23.3 10.56 (19:10) 6.11 (23:10) 0 0 0 0 0
14-07-2020 31.6 (17:50) 17.4 (00:00) 24.5 10.28 (00:50) 5.28 (05:50) 0 0 0 0 0
13-07-2020 35 (16:30) 18.6 (06:30) 26.8 8.89 (21:20) 4.72 (22:00) 0 0 0 0 0
12-07-2020 28.1 (11:20) 19.3 (06:30) 23.7 9.44 (17:50) 6.11 (17:50) 0.4 0 0 0.4 0
11-07-2020 32.9 (17:30) 17.5 (07:10) 25.2 7.22 (01:20) 4.72 (01:10) 0 0 0 0 0
10-07-2020 34.9 (17:40) 19.1 (00:00) 27 12.22 (21:30) 5.83 (21:20) 6.2 0 0 0 6.2
09-07-2020 34.5 (17:50) 21.4 (04:50) 27.9 15.56 (22:40) 8.89 (22:40) 0 0 0 0 0
08-07-2020 35 (16:40) 17.5 (07:00) 26.3 13.89 (23:10) 9.72 (23:10) 0 0 0 0 0

Gráficas

Temp. máximas Temp. mínimas Temp. medias Precipitaciones Rachas de viento máximas Velocidades máximas media en intervalos de 10 minutos

Datos horarios

Fecha y hora oficial Temperatura (ºC) Velocidad del viento (km/h) Dirección del viento Racha (km/h) Dirección de racha Precipitación (mm) Presión (hPa) Tendencia (hPa) Humedad (%)
2020-08-06 23:00:00 27.5 8 Nordeste 15 Nordeste 0 -- -- 52
2020-08-06 22:00:00 29.9 10 Nordeste 15 Este 0 -- -- 46
2020-08-06 21:00:00 32.7 13 Este 29 Este 0 -- -- 39
2020-08-06 20:00:00 34.2 21 Este 32 Nordeste 0 -- -- 36
2020-08-06 19:00:00 36.1 18 Este 28 Este 0 -- -- 28
2020-08-06 18:00:00 37.6 11 Nordeste 27 Nordeste 0 -- -- 24
2020-08-06 17:00:00 37.9 9 Nordeste 26 Nordeste 0 -- -- 26
2020-08-06 16:00:00 37.2 9 Nordeste 21 Este 0 -- -- 29
2020-08-06 15:00:00 36.4 9 Nordeste 24 Este 0 -- -- 33
2020-08-06 14:00:00 34.2 8 Nordeste 22 Este 0 -- -- 39
2020-08-06 13:00:00 31.3 5 Nordeste 16 Este 0 -- -- 48
2020-08-06 12:00:00 29.6 5 Este 12 Nordeste 0 -- -- 50
2020-08-06 11:00:00 28.2 4 Noroeste 10 Norte 0 -- -- 58
2020-08-06 10:00:00 26 4 Noroeste 11 Noroeste 0 -- -- 65
2020-08-06 09:00:00 22.8 3 Oeste 14 Sudoeste 0 -- -- 69
2020-08-06 08:00:00 18.4 8 Sudoeste 11 Oeste 0 -- -- 66
2020-08-06 07:00:00 17.5 6 Sudoeste 10 Sudoeste 0 -- -- 69
2020-08-06 06:00:00 18.1 6 Sudoeste 8 Sudoeste 0 -- -- 70
2020-08-06 05:00:00 18.4 6 Sudoeste 11 Sudoeste 0 -- -- 65
2020-08-06 04:00:00 19.1 5 Sudoeste 8 Sudoeste 0 -- -- 49
2020-08-06 03:00:00 19.6 5 Sudoeste 10 Sudoeste 0 -- -- 45
2020-08-06 02:00:00 21.6 6 Sudoeste 8 Sudoeste 0 -- -- 40
2020-08-06 01:00:00 22.7 4 Sudoeste 5 Sudoeste 0 -- -- 38
2020-08-06 00:00:00 24.4 5 Sudoeste 10 Este 0 -- -- 33
2020-08-05 23:00:00 26.3 3 Sudoeste 11 Este 0 -- -- 32
2020-08-05 22:00:00 29 5 Sudeste 6 Sudeste 0 -- -- 28
2020-08-05 21:00:00 31.1 0 Calma 6 Norte 0 -- -- 26
2020-08-05 20:00:00 32.2 4 Este 11 Noroeste 0 -- -- 26
2020-08-05 19:00:00 33.3 4 Nordeste 17 Oeste 0 -- -- 27
2020-08-05 18:00:00 34.4 4 Nordeste 15 Noroeste 0 -- -- 25
2020-08-05 17:00:00 34.3 6 Norte 21 Nordeste 0 -- -- 27
2020-08-05 16:00:00 33.8 4 Noroeste 19 Noroeste 0 -- -- 30
2020-08-05 15:00:00 31.6 6 Nordeste 19 Este 0 -- -- 33
2020-08-05 14:00:00 30.8 6 Norte 19 Este 0 -- -- 35
2020-08-05 13:00:00 28.5 5 Nordeste 19 Este 0 -- -- 39
2020-08-05 12:00:00 26.7 7 Nordeste 15 Este 0 -- -- 41
2020-08-05 11:00:00 25 6 Nordeste 14 Nordeste 0 -- -- 43
2020-08-05 10:00:00 23.5 3 Norte 7 Este 0 -- -- 45
2020-08-05 09:00:00 20.5 0 Calma 8 Oeste 0 -- -- 53
2020-08-05 08:00:00 17.1 5 Sudoeste 9 Sudoeste 0 -- -- 62
2020-08-05 07:00:00 16.5 3 Sudoeste 9 Sudoeste 0 -- -- 63
2020-08-05 06:00:00 17.4 3 Oeste 8 Sudoeste 0 -- -- 60
2020-08-05 05:00:00 18 6 Sudoeste 13 Sudoeste 0 -- -- 59
2020-08-05 04:00:00 18.8 10 Oeste 13 Sudoeste 0 -- -- 56
2020-08-05 03:00:00 19.8 9 Oeste 14 Sudoeste 0 -- -- 53
2020-08-05 02:00:00 21 7 Sudoeste 13 Sudoeste 0 -- -- 50
2020-08-05 01:00:00 21.5 9 Sudoeste 18 Sudoeste 0 -- -- 48
2020-08-05 00:00:00 22.4 11 Oeste 21 Noroeste 0 -- -- 45
2020-08-04 23:00:00 23.6 9 Oeste 24 Oeste 0 -- -- 41
2020-08-04 22:00:00 24.8 8 Noroeste 22 Noroeste 0 -- -- 36
2020-08-04 21:00:00 27.1 5 Noroeste 24 Noroeste 0 -- -- 28
2020-08-04 20:00:00 29.2 6 Noroeste 26 Oeste 0 -- -- 28
2020-08-04 19:00:00 30.8 8 Noroeste 26 Oeste 0 -- -- 25
2020-08-04 18:00:00 32.1 8 Noroeste 26 Norte 0 -- -- 24
2020-08-04 17:00:00 32.3 10 Noroeste 27 Oeste 0 -- -- 26
2020-08-04 16:00:00 32.5 10 Noroeste 31 Oeste 0 -- -- 28
2020-08-04 15:00:00 31.3 9 Noroeste 28 Oeste 0 -- -- 29
2020-08-04 14:00:00 30.2 8 Noroeste 23 Noroeste 0 -- -- 32
2020-08-04 13:00:00 28.3 8 Noroeste 25 Oeste 0 -- -- 38
2020-08-04 12:00:00 27.3 11 Noroeste 23 Noroeste 0 -- -- 40
2020-08-04 11:00:00 24.9 9 Noroeste 34 Norte 0 -- -- 45
2020-08-04 10:00:00 23.1 10 Noroeste 38 Noroeste 0 -- -- 50
2020-08-04 09:00:00 21 10 Noroeste 36 Noroeste 0 -- -- 56
2020-08-04 08:00:00 18.9 13 Oeste 32 Oeste 0 -- -- 59
2020-08-04 07:00:00 17.6 14 Oeste 33 Oeste 0 -- -- 61
2020-08-04 06:00:00 17.7 11 Noroeste 26 Oeste 0 -- -- 62
2020-08-04 05:00:00 18 11 Noroeste 24 Oeste 0 -- -- 59
2020-08-04 04:00:00 18.5 7 Noroeste 41 Oeste 0 -- -- 57
2020-08-04 03:00:00 19.2 27 Oeste 44 Oeste 0 -- -- 53
2020-08-04 02:00:00 19.6 26 Oeste 48 Oeste 0 -- -- 50
2020-08-04 01:00:00 20.3 29 Oeste 50 Oeste 0 -- -- 50
2020-08-04 00:00:00 21.3 25 Oeste 43 Oeste 0 -- -- 50
2020-08-03 23:00:00 22 21 Oeste 42 Oeste 0 -- -- 48
2020-08-03 22:00:00 23 18 Oeste 37 Oeste 0 -- -- 47
2020-08-03 21:00:00 24.9 16 Noroeste 36 Noroeste 0 -- -- 41
2020-08-03 20:00:00 27.1 13 Noroeste 35 Noroeste 0 -- -- 36
2020-08-03 19:00:00 28.9 12 Noroeste 34 Norte 0 -- -- 34
2020-08-03 18:00:00 30.5 13 Noroeste 41 Noroeste 0 -- -- 32
2020-08-03 17:00:00 32.2 10 Noroeste 38 Oeste 0 -- -- 29
2020-08-03 16:00:00 32.6 13 Noroeste 34 Oeste 0 -- -- 26
2020-08-03 15:00:00 31.2 12 Noroeste 35 Oeste 0 -- -- 30
2020-08-03 14:00:00 30.1 13 Noroeste 37 Oeste 0 -- -- 31
2020-08-03 13:00:00 28.2 10 Noroeste 34 Noroeste 0 -- -- 34
2020-08-03 12:00:00 26.6 10 Noroeste 32 Oeste 0 -- -- 38
2020-08-03 11:00:00 24.9 12 Noroeste 41 Oeste 0 -- -- 42
2020-08-03 10:00:00 22.8 14 Noroeste 36 Oeste 0 -- -- 47
2020-08-03 09:00:00 21.3 13 Noroeste 37 Oeste 0 -- -- 52
2020-08-03 08:00:00 19 12 Oeste 33 Oeste 0 -- -- 62
2020-08-03 07:00:00 18.2 13 Oeste 23 Oeste 0 -- -- 65
2020-08-03 06:00:00 18.9 9 Oeste 23 Oeste 0 -- -- 63
2020-08-03 05:00:00 19.5 10 Oeste 32 Noroeste 0 -- -- 55
2020-08-03 04:00:00 19.8 11 Noroeste 30 Oeste 0 -- -- 56
2020-08-03 03:00:00 20 12 Noroeste 36 Oeste 0 -- -- 56
2020-08-03 02:00:00 20 14 Oeste 32 Oeste 0 -- -- 56
2020-08-03 01:00:00 20.3 13 Oeste 40 Oeste 0 -- -- 55
2020-08-03 00:00:00 21 13 Oeste 33 Oeste 0 -- -- 52
2020-08-02 23:00:00 21.8 12 Noroeste 35 Oeste 0 -- -- 52
2020-08-02 22:00:00 22.7 11 Noroeste 35 Noroeste 0 -- -- 49
2020-08-02 21:00:00 23.9 12 Noroeste 35 Norte 0 -- -- 48
2020-08-02 20:00:00 25.7 10 Noroeste 31 Noroeste 0 -- -- 45
2020-08-02 19:00:00 29.2 9 Noroeste 35 Norte 0 -- -- 40
2020-08-02 18:00:00 31.3 10 Noroeste 38 Norte 0 -- -- 37
2020-08-02 17:00:00 32.5 11 Noroeste 35 Noroeste 0 -- -- 35
2020-08-02 16:00:00 32.9 11 Noroeste 37 Norte 0 -- -- 35
2020-08-02 15:00:00 33 9 Noroeste 32 Norte 0 -- -- 35
2020-08-02 14:00:00 31.9 12 Noroeste 27 Oeste 0 -- -- 38
2020-08-02 13:00:00 31.2 9 Noroeste 27 Norte 0 -- -- 39
2020-08-02 12:00:00 30 8 Noroeste 21 Norte 0 -- -- 42
2020-08-02 11:00:00 27.9 8 Noroeste 22 Noroeste 0 -- -- 46
2020-08-02 10:00:00 25.7 6 Noroeste 26 Noroeste 0 -- -- 51
2020-08-02 09:00:00 23.4 13 Oeste 27 Oeste 0 -- -- 57
2020-08-02 08:00:00 20.4 11 Oeste 23 Oeste 0 -- -- 70
2020-08-02 07:00:00 20 12 Oeste 26 Oeste 0 -- -- 70
2020-08-02 06:00:00 20.1 12 Oeste 19 Oeste 0 -- -- 70
2020-08-02 05:00:00 20.4 13 Oeste 19 Oeste 0 -- -- 70
2020-08-02 04:00:00 20.8 12 Oeste 18 Oeste 0 -- -- 68
2020-08-02 03:00:00 21.3 11 Oeste 19 Oeste 0 -- -- 67
2020-08-02 02:00:00 22.2 12 Oeste 27 Oeste 0 -- -- 63
2020-08-02 01:00:00 23 13 Oeste 32 Noroeste 0 -- -- 60
2020-08-02 00:00:00 23.9 19 Oeste 39 Oeste 0 -- -- 57
2020-08-01 23:00:00 24.8 18 Oeste 32 Oeste 0 -- -- 54
2020-08-01 22:00:00 26.3 12 Noroeste 36 Oeste 0 -- -- 51
2020-08-01 21:00:00 28.5 8 Noroeste 30 Noroeste 0 -- -- 45
2020-08-01 20:00:00 32.3 10 Noroeste 26 Noroeste 0 -- -- 38
2020-08-01 19:00:00 35.3 8 Noroeste 31 Noroeste 0 -- -- 35
2020-08-01 18:00:00 37.3 8 Noroeste 26 Noroeste 0 -- -- 31
2020-08-01 17:00:00 38.2 10 Noroeste 31 Noroeste 0 -- -- 31
2020-08-01 16:00:00 38.5 8 Noroeste 23 Noroeste 0 -- -- 30
2020-08-01 15:00:00 37.1 9 Noroeste 26 Noroeste 0 -- -- 31
2020-08-01 14:00:00 36 7 Noroeste 20 Norte 0 -- -- 35
2020-08-01 13:00:00 34.3 6 Noroeste 20 Noroeste 0 -- -- 40
2020-08-01 12:00:00 32.8 5 Norte 15 Norte 0 -- -- 43
2020-08-01 11:00:00 30.7 4 Norte 18 Noroeste 0 -- -- 48
2020-08-01 10:00:00 28.7 8 Noroeste 23 Norte 0 -- -- 53
2020-08-01 09:00:00 25.8 4 Noroeste 13 Noroeste 0 -- -- 58
2020-08-01 08:00:00 23.2 3 Noroeste 10 Oeste 0 -- -- 64
2020-08-01 07:00:00 22.2 5 Sudoeste 13 Sudoeste 0 -- -- 68
2020-08-01 06:00:00 22.1 5 Sudoeste 14 Oeste 0 -- -- 66
2020-08-01 05:00:00 23.3 3 Sudoeste 6 Oeste 0 -- -- 49
2020-08-01 04:00:00 25 0 Calma 5 Sudeste 0 -- -- 44
2020-08-01 03:00:00 25.7 3 Oeste 8 Sudoeste 0 -- -- 43
2020-08-01 02:00:00 27 3 Sudoeste 8 Sudoeste 0 -- -- 40
2020-08-01 01:00:00 27.4 6 Sur 8 Sur 0 -- -- 39
2020-08-01 00:00:00 29.1 2 Oeste 15 Sudeste 0 -- -- 36
2020-07-31 23:00:00 30.9 12 Este 21 Este 0 -- -- 32
2020-07-31 22:00:00 33.3 6 Este 28 Sur 0 -- -- 29
2020-07-31 21:00:00 35.2 24 Sur 39 Sur 0 -- -- 26
2020-07-31 20:00:00 37.2 27 Sur 41 Sur 0 -- -- 32
2020-07-31 19:00:00 39.9 7 Sudeste 22 Este 0 -- -- 22
2020-07-31 18:00:00 41 4 Nordeste 20 Nordeste 0 -- -- 23
2020-07-31 17:00:00 40.6 6 Este 20 Nordeste 0 -- -- 23
2020-07-31 16:00:00 41.1 5 Noroeste 18 Nordeste 0 -- -- 23
2020-07-31 15:00:00 38.8 10 Nordeste 22 Nordeste 0 -- -- 25
2020-07-31 14:00:00 37.3 5 Norte 16 Nordeste 0 -- -- 29
2020-07-31 13:00:00 36 6 Norte 14 Norte 0 -- -- 31
2020-07-31 12:00:00 33.8 5 Norte 13 Nordeste 0 -- -- 35
2020-07-31 11:00:00 31.4 5 Norte 10 Norte 0 -- -- 39
2020-07-31 10:00:00 28.9 3 Noroeste 8 Norte 0 -- -- 44
2020-07-31 09:00:00 24.8 5 Oeste 14 Oeste 0 -- -- 54
2020-07-31 08:00:00 21.5 9 Sudoeste 14 Sudoeste 0 -- -- 61
2020-07-31 07:00:00 21.4 6 Sudoeste 13 Sudoeste 0 -- -- 60
2020-07-31 06:00:00 21.7 4 Sudoeste 10 Sudoeste 0 -- -- 59
2020-07-31 05:00:00 22.3 6 Sudoeste 10 Sudeste 0 -- -- 57
2020-07-31 04:00:00 23.3 2 Sudeste 20 Sudoeste 0 -- -- 55
2020-07-31 03:00:00 24.1 15 Sudoeste 21 Sudoeste 0 -- -- 52
2020-07-31 02:00:00 25.1 5 Sudoeste 13 Sudoeste 0 -- -- 51
2020-07-31 01:00:00 26.7 2 Norte 16 Oeste 0 -- -- 47
2020-07-31 00:00:00 27.7 4 Oeste 17 Nordeste 0 -- -- 46
2020-07-30 23:00:00 29.3 10 Este 24 Oeste 0 -- -- 44
2020-07-30 22:00:00 30.9 12 Este 22 Sudeste 0 -- -- 42
2020-07-30 21:00:00 33.9 16 Sudeste 28 Este 0 -- -- 32
2020-07-30 20:00:00 35.4 7 Este 22 Oeste 0 -- -- 24
2020-07-30 19:00:00 34.2 5 Sur 41 Norte 0 -- -- 25
2020-07-30 18:00:00 32.7 14 Norte 80 Sudoeste 0 -- -- 29
2020-07-30 17:00:00 33.1 45 Oeste 77 Oeste 0 -- -- 30
2020-07-30 16:00:00 37.9 21 Este 39 Este 0 -- -- 26
2020-07-30 15:00:00 38 17 Este 33 Este 0 -- -- 28
2020-07-30 14:00:00 36.5 10 Nordeste 30 Nordeste 0 -- -- 29
2020-07-30 13:00:00 35 9 Nordeste 24 Este 0 -- -- 35
2020-07-30 12:00:00 32.9 11 Nordeste 22 Este 0 -- -- 38
2020-07-30 11:00:00 30.7 3 Norte 10 Noroeste 0 -- -- 47
2020-07-30 10:00:00 28 4 Oeste 12 Oeste 0 -- -- 55
2020-07-30 09:00:00 24.5 5 Oeste 14 Sudoeste 0 -- -- 64
2020-07-30 08:00:00 21.2 8 Sudoeste 15 Oeste 0 -- -- 73
2020-07-30 07:00:00 20.3 9 Sudoeste 13 Oeste 0 -- -- 75
2020-07-30 06:00:00 20.8 10 Sudoeste 13 Sudoeste 0 -- -- 73
2020-07-30 05:00:00 21.7 5 Oeste 11 Sudoeste 0 -- -- 71
2020-07-30 04:00:00 22.3 8 Sudoeste 12 Sudoeste 0 -- -- 69
2020-07-30 03:00:00 23.2 7 Oeste 10 Oeste 0 -- -- 66
2020-07-30 02:00:00 24 5 Sudoeste 12 Oeste 0 -- -- 64
2020-07-30 01:00:00 25.2 2 Norte 15 Nordeste 0 -- -- 61
2020-07-30 00:00:00 26.3 8 Nordeste 15 Nordeste 0 -- -- 57
2020-07-29 23:00:00 27.9 10 Nordeste 16 Este 0 -- -- 53
2020-07-29 22:00:00 30.2 7 Este 23 Este 0 -- -- 44
2020-07-29 21:00:00 32 14 Este 28 Nordeste 0 -- -- 41
2020-07-29 20:00:00 32.8 19 Nordeste 39 Este 0 -- -- 41
2020-07-29 19:00:00 34.1 22 Nordeste 35 Nordeste 0 -- -- 38
2020-07-29 18:00:00 34.9 21 Nordeste 35 Nordeste 0 -- -- 36
2020-07-29 17:00:00 35.3 22 Nordeste 39 Este 0 -- -- 36
2020-07-29 16:00:00 35.3 19 Nordeste 34 Nordeste 0 -- -- 37
2020-07-29 15:00:00 34.5 13 Nordeste 27 Nordeste 0 -- -- 37
2020-07-29 14:00:00 33.2 12 Este 24 Sudeste 0 -- -- 40
2020-07-29 13:00:00 31.4 12 Este 22 Este 0 -- -- 43
2020-07-29 12:00:00 29.2 8 Este 19 Este 0 -- -- 49
2020-07-29 11:00:00 28 5 Nordeste 13 Nordeste 0 -- -- 53
2020-07-29 10:00:00 27 4 Norte 13 Noroeste 0 -- -- 55
2020-07-29 09:00:00 24.9 3 Noroeste 9 Noroeste 0 -- -- 61
2020-07-29 08:00:00 23 3 Noroeste 9 Oeste 0 -- -- 67
2020-07-29 07:00:00 22.7 4 Noroeste 10 Oeste 0 -- -- 68
2020-07-29 06:00:00 22.7 3 Noroeste 17 Sudoeste 0 -- -- 67
2020-07-29 05:00:00 22.8 10 Sudoeste 15 Sudoeste 0 -- -- 67
2020-07-29 04:00:00 23.4 8 Oeste 23 Oeste 0 -- -- 65
2020-07-29 03:00:00 24.1 15 Oeste 30 Oeste 0 -- -- 63
2020-07-29 02:00:00 24.8 14 Oeste 26 Oeste 0 -- -- 61
2020-07-29 01:00:00 26.1 15 Oeste 33 Oeste 0 -- -- 57
2020-07-29 00:00:00 27.1 10 Noroeste 32 Oeste 0 -- -- 55
2020-07-28 23:00:00 29 5 Noroeste 26 Norte 0 -- -- 51
2020-07-28 22:00:00 30.4 12 Norte 29 Noroeste 0 -- -- 45
2020-07-28 21:00:00 34.7 21 Este 33 Este 0 -- -- 27
2020-07-28 20:00:00 36.5 16 Este 27 Este 0 -- -- 25
2020-07-28 19:00:00 36.8 17 Nordeste 33 Nordeste 0 -- -- 34
2020-07-28 18:00:00 37.9 15 Nordeste 32 Este 0 -- -- 33
2020-07-28 17:00:00 37.3 11 Nordeste 29 Nordeste 0 -- -- 32
2020-07-28 16:00:00 37.3 7 Nordeste 23 Nordeste 0 -- -- 31
2020-07-28 15:00:00 36.1 9 Nordeste 20 Nordeste 0 -- -- 34
2020-07-28 14:00:00 34.8 8 Norte 18 Noroeste 0 -- -- 37
2020-07-28 13:00:00 33.5 6 Norte 16 Noroeste 0 -- -- 40
2020-07-28 12:00:00 31.8 5 Noroeste 16 Norte 0 -- -- 43
2020-07-28 11:00:00 29.8 4 Noroeste 12 Este 0 -- -- 47
2020-07-28 10:00:00 27.1 4 Noroeste 10 Nordeste 0 -- -- 56
2020-07-28 09:00:00 25.4 4 Nordeste 10 Nordeste 0 -- -- 60
2020-07-28 08:00:00 23.3 5 Este 7 Este 0 -- -- 67
2020-07-28 07:00:00 23.3 3 Oeste 10 Oeste 0 -- -- 64
2020-07-28 06:00:00 23.6 6 Oeste 10 Oeste 0 -- -- 62
2020-07-28 05:00:00 24.3 2 Oeste 7 Oeste 0 -- -- 60
2020-07-28 04:00:00 25.3 4 Norte 9 Este 0 -- -- 58
2020-07-28 03:00:00 26.3 3 Norte 15 Nordeste 0 -- -- 54
2020-07-28 02:00:00 28.4 9 Nordeste 28 Este 0 -- -- 48
2020-07-28 01:00:00 30 11 Nordeste 24 Nordeste 0 -- -- 44
2020-07-28 00:00:00 32.8 9 Sur 50 Sur 0 -- -- 37
2020-07-27 23:00:00 33 33 Sur 53 Sur 0 -- -- 37
2020-07-27 22:00:00 34.1 26 Sur 41 Sur 0 -- -- 34
2020-07-27 21:00:00 34.7 14 Sudeste 38 Sudeste 0 -- -- 32
2020-07-27 20:00:00 36.3 25 Este 39 Sudeste 0 -- -- 29
2020-07-27 19:00:00 36.1 18 Este 32 Nordeste 0 -- -- 39
2020-07-27 18:00:00 37.5 22 Este 36 Nordeste 0 -- -- 35
2020-07-27 17:00:00 39.8 14 Nordeste 30 Este 0 -- -- 30
2020-07-27 16:00:00 38.7 12 Nordeste 26 Nordeste 0 -- -- 30
2020-07-27 15:00:00 37.5 10 Este 25 Nordeste 0 -- -- 34
2020-07-27 14:00:00 35.5 9 Nordeste 20 Este 0 -- -- 37
2020-07-27 13:00:00 34 7 Nordeste 18 Nordeste 0 -- -- 41
2020-07-27 12:00:00 31.2 5 Este 15 Este 0 -- -- 47
2020-07-27 09:00:00 -- -- -- -- -- -- -- -- --
2020-07-27 08:00:00 21.5 6 Sudoeste 9 Sudoeste 0 -- -- 82
2020-07-27 07:00:00 20.5 4 Sudoeste 7 Sudoeste 0 -- -- 83
2020-07-27 06:00:00 21.1 4 Sudoeste 6 Sudoeste 0 -- -- 80
2020-07-27 05:00:00 22 2 Sudoeste 5 Sudoeste 0 -- -- 77
2020-07-27 04:00:00 23.2 4 Nordeste 11 Nordeste 0 -- -- 72
2020-07-27 03:00:00 23.6 5 Nordeste 10 Nordeste 0 -- -- 74
2020-07-27 02:00:00 24.6 5 Este 17 Nordeste 0 -- -- 70
2020-07-27 01:00:00 25.4 10 Nordeste 18 Nordeste 0 -- -- 67
2020-07-27 00:00:00 26.8 12 Nordeste 17 Nordeste 0 -- -- 64
2020-07-26 23:00:00 28.6 13 Nordeste 16 Nordeste 0 -- -- 59
2020-07-26 22:00:00 31.1 12 Este 22 Este 0 -- -- 49
2020-07-26 21:00:00 33.5 9 Este 15 Nordeste 0 -- -- 34
2020-07-26 20:00:00 34.3 11 Nordeste 22 Este 0 -- -- 33
2020-07-26 19:00:00 35.4 11 Nordeste 19 Nordeste 0 -- -- 33
2020-07-26 18:00:00 36.1 4 Norte 17 Nordeste 0 -- -- 32
2020-07-26 17:00:00 36.1 4 Norte 15 Norte 0 -- -- 32
2020-07-26 16:00:00 36.2 7 Norte 18 Noroeste 0 -- -- 33
2020-07-26 15:00:00 35.6 7 Norte 19 Norte 0 -- -- 33
2020-07-26 14:00:00 34.2 8 Norte 19 Norte 0 -- -- 34
2020-07-26 13:00:00 32.3 5 Noroeste 17 Nordeste 0 -- -- 36
2020-07-26 12:00:00 31.1 5 Norte 19 Norte 0 -- -- 38
2020-07-26 11:00:00 29.5 7 Noroeste 19 Noroeste 0 -- -- 40
2020-07-26 10:00:00 27.5 6 Noroeste 18 Oeste 0 -- -- 44
2020-07-26 09:00:00 25.3 5 Noroeste 20 Oeste 0 -- -- 48
2020-07-26 08:00:00 22 11 Oeste 22 Oeste 0 -- -- 60
2020-07-26 07:00:00 20.6 10 Oeste 17 Oeste 0 -- -- 69
2020-07-26 06:00:00 21.4 3 Noroeste 7 Oeste 0 -- -- 71
2020-07-26 05:00:00 22.2 2 Oeste 10 Noroeste 0 -- -- 71
2020-07-26 04:00:00 22.9 0 Calma 8 Noroeste 0 -- -- 73
2020-07-26 03:00:00 23.5 2 Noroeste 10 Norte 0 -- -- 70
2020-07-26 02:00:00 24.4 5 Nordeste 17 Este 0 -- -- 66
2020-07-26 01:00:00 25.4 9 Nordeste 17 Nordeste 0 -- -- 62
2020-07-26 00:00:00 26.9 14 Este 19 Este 0 -- -- 58
2020-07-25 23:00:00 28.9 14 Este 18 Este 0 -- -- 52
2020-07-25 22:00:00 30.7 11 Este 19 Este 0 -- -- 47
2020-07-25 21:00:00 32.4 12 Este 17 Este 0 -- -- 33
2020-07-25 20:00:00 33.1 4 Nordeste 13 Nordeste 0 -- -- 29
2020-07-25 19:00:00 33.7 4 Norte 15 Nordeste 0 -- -- 30
2020-07-25 18:00:00 34.9 7 Norte 17 Nordeste 0 -- -- 28
2020-07-25 17:00:00 34.5 5 Nordeste 18 Nordeste 0 -- -- 29
2020-07-25 16:00:00 34.2 5 Norte 13 Norte 0 -- -- 29
2020-07-25 15:00:00 32.2 4 Norte 21 Nordeste 0 -- -- 31
2020-07-25 14:00:00 31.5 6 Norte 22 Este 0 -- -- 32
2020-07-25 13:00:00 29.7 7 Nordeste 15 Nordeste 0 -- -- 36
2020-07-25 12:00:00 28.5 6 Norte 15 Nordeste 0 -- -- 38
2020-07-25 11:00:00 27.1 4 Noroeste 19 Norte 0 -- -- 41
2020-07-25 10:00:00 25.2 6 Norte 17 Noroeste 0 -- -- 45
2020-07-25 09:00:00 23.3 6 Noroeste 18 Oeste 0 -- -- 49
2020-07-25 08:00:00 19.8 14 Oeste 19 Oeste 0 -- -- 61
2020-07-25 07:00:00 18.8 11 Oeste 17 Oeste 0 -- -- 63
2020-07-25 06:00:00 19.5 5 Noroeste 14 Noroeste 0 -- -- 62
2020-07-25 05:00:00 20 8 Noroeste 20 Oeste 0 -- -- 59
2020-07-25 04:00:00 20.6 4 Noroeste 10 Oeste 0 -- -- 59
2020-07-25 03:00:00 21.4 6 Oeste 18 Oeste 0 -- -- 57
2020-07-25 02:00:00 22.4 10 Oeste 21 Oeste 0 -- -- 54
2020-07-25 01:00:00 23.7 9 Oeste 26 Noroeste 0 -- -- 50
2020-07-25 00:00:00 25.2 10 Noroeste 26 Norte 0 -- -- 46
2020-07-24 23:00:00 26.4 10 Noroeste 27 Oeste 0 -- -- 42
2020-07-24 22:00:00 28.2 6 Noroeste 22 Noroeste 0 -- -- 37
2020-07-24 21:00:00 31.1 3 Noroeste 11 Noroeste 0 -- -- 33
2020-07-24 20:00:00 32.6 3 Noroeste 15 Oeste 0 -- -- 30
2020-07-24 19:00:00 33.6 4 Noroeste 17 Noroeste 0 -- -- 28
2020-07-24 18:00:00 35 5 Norte 19 Nordeste 0 -- -- 26
2020-07-24 17:00:00 35.4 5 Norte 24 Noroeste 0 -- -- 26
2020-07-24 16:00:00 34.8 6 Noroeste 25 Noroeste 0 -- -- 27
2020-07-24 15:00:00 33.7 7 Norte 22 Noroeste 0 -- -- 29
2020-07-24 14:00:00 32.6 7 Noroeste 24 Norte 0 -- -- 31
2020-07-24 13:00:00 30.5 5 Norte 21 Norte 0 -- -- 34
2020-07-24 12:00:00 28.1 4 Norte 19 Norte 0 -- -- 38
2020-07-24 11:00:00 27.4 6 Noroeste 18 Norte 0 -- -- 39
2020-07-24 10:00:00 25.1 5 Noroeste 20 Norte 0 -- -- 44
2020-07-24 09:00:00 22.8 5 Noroeste 19 Oeste 0 -- -- 49
2020-07-24 08:00:00 20.5 7 Oeste 13 Oeste 0 -- -- 54
2020-07-24 07:00:00 20.2 6 Oeste 18 Oeste 0 -- -- 54
2020-07-24 06:00:00 21 9 Oeste 23 Oeste 0 -- -- 53
2020-07-24 05:00:00 22.2 8 Noroeste 23 Noroeste 0 -- -- 50
2020-07-24 04:00:00 23.1 12 Oeste 22 Oeste 0 -- -- 53
2020-07-24 03:00:00 24.4 13 Oeste 25 Oeste 0 -- -- 49
2020-07-24 02:00:00 26 14 Oeste 31 Oeste 0 -- -- 47
2020-07-24 01:00:00 28 17 Oeste 28 Oeste 0 -- -- 43
2020-07-24 00:00:00 29.4 14 Oeste 24 Oeste 0 -- -- 40
2020-07-23 23:00:00 30.1 6 Sur 12 Sur 0 -- -- 41
2020-07-23 22:00:00 31.3 5 Noroeste 17 Noroeste 0 -- -- 27
2020-07-23 21:00:00 33.4 3 Norte 9 Noroeste 0 -- -- 23
2020-07-23 20:00:00 35.1 4 Norte 15 Nordeste 0 -- -- 24
2020-07-23 19:00:00 36.3 6 Norte 18 Nordeste 0 -- -- 24
2020-07-23 18:00:00 37.5 5 Norte 18 Este 0 -- -- 25
2020-07-23 17:00:00 37.7 5 Noroeste 18 Este 0 -- -- 25
2020-07-23 16:00:00 37 7 Norte 15 Norte 0 -- -- 26
2020-07-23 15:00:00 36.1 8 Nordeste 19 Nordeste 0 -- -- 30
2020-07-23 14:00:00 35 6 Norte 15 Norte 0 -- -- 33
2020-07-23 13:00:00 33.3 6 Nordeste 18 Noroeste 0 -- -- 39
2020-07-23 12:00:00 31.7 5 Norte 15 Norte 0 -- -- 43
2020-07-23 11:00:00 30.2 4 Norte 14 Noroeste 0 -- -- 47
2020-07-23 10:00:00 27.8 5 Noroeste 13 Noroeste 0 -- -- 52
2020-07-23 09:00:00 23.7 5 Oeste 12 Sudoeste 0 -- -- 47
2020-07-23 08:00:00 19.5 10 Sudoeste 16 Sudoeste 0 -- -- 44
2020-07-23 07:00:00 18.9 9 Sudoeste 13 Sudoeste 0 -- -- 47
2020-07-23 06:00:00 19.6 8 Oeste 12 Oeste 0 -- -- 45
2020-07-23 05:00:00 20.4 8 Oeste 12 Oeste 0 -- -- 40
2020-07-23 04:00:00 21 3 Sudoeste 10 Sudoeste 0 -- -- 37
2020-07-23 03:00:00 21.9 5 Oeste 10 Sudoeste 0 -- -- 35
2020-07-23 02:00:00 22.9 6 Sudoeste 11 Sudoeste 0 -- -- 33
2020-07-23 01:00:00 25.4 4 Sudoeste 7 Sudoeste 0 -- -- 29
2020-07-23 00:00:00 26.1 0 Calma 8 Sudeste 0 -- -- 31
2020-07-22 23:00:00 27.6 3 Sudeste 16 Sudeste 0 -- -- 32
2020-07-22 22:00:00 29.6 13 Sur 26 Sudeste 0 -- -- 28
2020-07-22 21:00:00 32.3 22 Sudeste 32 Sudeste 0 -- -- 22
2020-07-22 20:00:00 33.9 20 Sudeste 28 Sudeste 0 -- -- 19
2020-07-22 19:00:00 34.6 18 Sudeste 34 Sudeste 0 -- -- 20
2020-07-22 18:00:00 35.2 21 Sudeste 32 Sudeste 0 -- -- 19
2020-07-22 17:00:00 35.9 17 Sudeste 33 Sudeste 0 -- -- 20
2020-07-22 16:00:00 34.7 12 Este 29 Este 0 -- -- 27
2020-07-22 15:00:00 33.4 10 Este 27 Nordeste 0 -- -- 28
2020-07-22 14:00:00 31.5 10 Nordeste 22 Nordeste 0 -- -- 37
2020-07-22 13:00:00 30.1 7 Este 16 Este 0 -- -- 45
2020-07-22 12:00:00 27.1 6 Sur 18 Este 0 -- -- 52
2020-07-22 11:00:00 26.4 9 Nordeste 18 Nordeste 0 -- -- 55
2020-07-22 10:00:00 24 10 Oeste 21 Sudoeste 0 -- -- 64
2020-07-22 09:00:00 23.5 3 Noroeste 9 Nordeste 0 -- -- 64
2020-07-22 08:00:00 21.5 7 Este 11 Sudeste 0 -- -- 71
2020-07-22 07:00:00 20.1 4 Oeste 21 Sudoeste 0 -- -- 75
2020-07-22 06:00:00 20 6 Sudoeste 9 Sudoeste 0 -- -- 71
2020-07-22 05:00:00 20.8 3 Sudoeste 8 Sudoeste 0 -- -- 69
2020-07-22 04:00:00 21.4 4 Sudoeste 8 Oeste 0 -- -- 67
2020-07-22 03:00:00 22.2 5 Sudoeste 8 Oeste 0 -- -- 65
2020-07-22 02:00:00 23.5 2 Noroeste 10 Nordeste 0 -- -- 62
2020-07-22 01:00:00 24.5 5 Nordeste 19 Este 0 -- -- 59
2020-07-22 00:00:00 25.8 9 Nordeste 22 Norte 0 -- -- 54
2020-07-21 23:00:00 28.1 14 Sur 26 Sudeste 0 -- -- 42
2020-07-21 22:00:00 29.8 22 Sudeste 36 Sudeste 0 -- -- 38
2020-07-21 21:00:00 31.2 19 Este 33 Este 0 -- -- 42
2020-07-21 20:00:00 33.1 14 Sur 31 Sudeste 0 -- -- 36
2020-07-21 19:00:00 34.7 20 Sudeste 37 Este 0 -- -- 32
2020-07-21 18:00:00 35.1 26 Nordeste 45 Este 0 -- -- 38
2020-07-21 17:00:00 36.8 21 Nordeste 37 Nordeste 0 -- -- 32
2020-07-21 16:00:00 36.5 15 Este 30 Este 0 -- -- 32
2020-07-21 15:00:00 35.4 14 Este 31 Nordeste 0 -- -- 35
2020-07-21 14:00:00 33.4 12 Nordeste 22 Este 0 -- -- 39
2020-07-21 13:00:00 31.6 8 Nordeste 16 Este 0 -- -- 47
2020-07-21 12:00:00 29.6 5 Nordeste 14 Este 0 -- -- 53
2020-07-21 11:00:00 27.7 5 Nordeste 13 Nordeste 0 -- -- 59
2020-07-21 10:00:00 26.1 4 Norte 12 Norte 0 -- -- 63
2020-07-21 09:00:00 23.8 3 Noroeste 8 Norte 0 -- -- 68
2020-07-21 08:00:00 20.5 5 Sudoeste 8 Sudoeste 0 -- -- 81
2020-07-21 07:00:00 19.3 5 Sudoeste 8 Sudoeste 0 -- -- 85
2020-07-21 06:00:00 19.6 6 Sudoeste 8 Sudoeste 0 -- -- 84
2020-07-21 05:00:00 19.9 4 Oeste 9 Sudoeste 0 -- -- 82
2020-07-21 04:00:00 20.5 4 Oeste 7 Sudoeste 0 -- -- 80
2020-07-21 03:00:00 21.3 4 Oeste 6 Oeste 0 -- -- 77
2020-07-21 02:00:00 22.4 2 Noroeste 5 Norte 0 -- -- 74
2020-07-21 01:00:00 23.4 6 Nordeste 12 Nordeste 0 -- -- 71
2020-07-21 00:00:00 24.4 8 Nordeste 24 Nordeste 0 -- -- 65
2020-07-20 23:00:00 25.7 16 Este 26 Este 0 -- -- 59
2020-07-20 22:00:00 28.3 15 Este 31 Sudeste 0 -- -- 53
2020-07-20 21:00:00 30.9 20 Sudeste 30 Sudeste 0 -- -- 51
2020-07-20 20:00:00 33.4 18 Sudeste 55 Nordeste 0 -- -- 44
2020-07-20 19:00:00 33.4 27 Nordeste 40 Nordeste 0 -- -- 45
2020-07-20 18:00:00 33.9 23 Nordeste 38 Nordeste 0 -- -- 43
2020-07-20 17:00:00 34.6 23 Este 42 Nordeste 0 -- -- 39
2020-07-20 16:00:00 35.6 16 Nordeste 34 Nordeste 0 -- -- 37
2020-07-20 15:00:00 34.8 11 Nordeste 25 Nordeste 0 -- -- 38
2020-07-20 14:00:00 33.3 8 Nordeste 21 Nordeste 0 -- -- 42
2020-07-20 13:00:00 31 7 Este 15 Nordeste 0 -- -- 48
2020-07-20 12:00:00 29.9 5 Norte 17 Nordeste 0 -- -- 51
2020-07-20 11:00:00 28.3 4 Norte 14 Norte 0 -- -- 55
2020-07-20 10:00:00 26.5 5 Noroeste 13 Norte 0 -- -- 59
2020-07-20 09:00:00 23.8 4 Noroeste 11 Oeste 0 -- -- 68
2020-07-20 08:00:00 20.6 4 Oeste 10 Oeste 0 -- -- 79
2020-07-20 07:00:00 19.8 4 Sudoeste 8 Sudoeste 0 -- -- 82
2020-07-20 06:00:00 20.4 4 Sudoeste 6 Oeste 0 -- -- 80
2020-07-20 05:00:00 21.1 0 Calma 6 Nordeste 0 -- -- 78
2020-07-20 04:00:00 21.9 3 Sudeste 10 Este 0 -- -- 74
2020-07-20 03:00:00 22.6 7 Nordeste 12 Nordeste 0 -- -- 73
2020-07-20 02:00:00 23.3 7 Nordeste 23 Nordeste 0 -- -- 71
2020-07-20 01:00:00 25.1 9 Nordeste 23 Este 0 -- -- 65
2020-07-20 00:00:00 26.3 17 Este 23 Este 0 -- -- 63
2020-07-19 23:00:00 28.4 13 Este 24 Este 0 -- -- 57
2020-07-19 22:00:00 30.1 14 Este 28 Este 0 -- -- 52
2020-07-19 21:00:00 32.3 20 Este 36 Este 0 -- -- 47
2020-07-19 20:00:00 33.3 26 Este 35 Este 0 -- -- 45
2020-07-19 19:00:00 35.4 14 Nordeste 24 Nordeste 0 -- -- 23
2020-07-19 18:00:00 36.9 6 Nordeste 22 Norte 0 -- -- 28
2020-07-19 17:00:00 37.1 6 Norte 15 Noroeste 0 -- -- 29
2020-07-19 16:00:00 36.5 6 Norte 14 Sudeste 0 -- -- 32
2020-07-19 15:00:00 34.8 8 Este 22 Este 0 -- -- 36
2020-07-19 14:00:00 33 5 Este 18 Este 0 -- -- 41
2020-07-19 13:00:00 31 4 Nordeste 16 Este 0 -- -- 46
2020-07-19 12:00:00 29.2 4 Noroeste 13 Norte 0 -- -- 52
2020-07-19 11:00:00 27.6 4 Noroeste 12 Noroeste 0 -- -- 58
2020-07-19 10:00:00 25.1 4 Norte 13 Noroeste 0 -- -- 66
2020-07-19 09:00:00 21.5 4 Oeste 10 Oeste 0 -- -- 75
2020-07-19 08:00:00 19.6 6 Sudoeste 13 Sudoeste 0 -- -- 79
2020-07-19 07:00:00 17.7 8 Sudoeste 14 Sudoeste 0 -- -- 76
2020-07-19 06:00:00 18 5 Sudoeste 11 Oeste 0 -- -- 74
2020-07-19 05:00:00 18.2 9 Oeste 12 Oeste 0 -- -- 67
2020-07-19 04:00:00 18.1 8 Sudoeste 12 Sudoeste 0 -- -- 56
2020-07-19 03:00:00 19.4 6 Sudoeste 10 Sudoeste 0 -- -- 50
2020-07-19 02:00:00 21.2 5 Oeste 8 Sudoeste 0 -- -- 44
2020-07-19 01:00:00 22.5 5 Sudoeste 9 Sudoeste 0 -- -- 41
2020-07-19 00:00:00 23.9 6 Sur 15 Sudoeste 0 -- -- 37
2020-07-18 23:00:00 25.2 9 Sudoeste 14 Oeste 0 -- -- 31
2020-07-18 22:00:00 28.4 5 Sudeste 6 Sudeste 0 -- -- 24
2020-07-18 21:00:00 30.4 3 Este 10 Nordeste 0 -- -- 24
2020-07-18 20:00:00 31.7 4 Norte 12 Nordeste 0 -- -- 26
2020-07-18 19:00:00 32.6 5 Norte 15 Nordeste 0 -- -- 28
2020-07-18 18:00:00 33.4 5 Norte 17 Nordeste 0 -- -- 28
2020-07-18 17:00:00 34.4 6 Noroeste 15 Noroeste 0 -- -- 27
2020-07-18 16:00:00 34.1 5 Noroeste 19 Norte 0 -- -- 29
2020-07-18 15:00:00 32.6 5 Noroeste 18 Oeste 0 -- -- 31
2020-07-18 14:00:00 30.7 5 Norte 20 Nordeste 0 -- -- 36
2020-07-18 13:00:00 29.7 5 Noroeste 16 Norte 0 -- -- 38
2020-07-18 12:00:00 27.8 5 Norte 14 Oeste 0 -- -- 41
2020-07-18 11:00:00 26.3 5 Noroeste 15 Norte 0 -- -- 44
2020-07-18 10:00:00 24.2 6 Oeste 23 Oeste 0 -- -- 49
2020-07-18 09:00:00 20.7 11 Oeste 17 Oeste 0 -- -- 57
2020-07-18 08:00:00 17 10 Sudoeste 15 Sudoeste 0 -- -- 68
2020-07-18 07:00:00 16 10 Sudoeste 15 Sudoeste 0 -- -- 70
2020-07-18 06:00:00 16.4 10 Sudoeste 18 Sudoeste 0 -- -- 70
2020-07-18 05:00:00 17.3 12 Sudoeste 16 Oeste 0 -- -- 67
2020-07-18 04:00:00 18.2 12 Sudoeste 18 Oeste 0 -- -- 65
2020-07-18 03:00:00 18.5 9 Sudoeste 17 Oeste 0 -- -- 63
2020-07-18 02:00:00 19.1 13 Oeste 24 Oeste 0 -- -- 61
2020-07-18 01:00:00 19.9 17 Oeste 29 Oeste 0 -- -- 58
2020-07-18 00:00:00 20.5 17 Sudoeste 26 Oeste 0 -- -- 56
2020-07-17 23:00:00 21.8 18 Oeste 31 Oeste 0 -- -- 50
2020-07-17 22:00:00 23.2 11 Oeste 30 Noroeste 0 -- -- 45
2020-07-17 21:00:00 25.4 12 Noroeste 30 Oeste 0 -- -- 38
2020-07-17 20:00:00 27.7 9 Noroeste 29 Noroeste 0 -- -- 35
2020-07-17 19:00:00 29.6 10 Noroeste 27 Noroeste 0 -- -- 30
2020-07-17 18:00:00 31.4 9 Noroeste 33 Oeste 0 -- -- 27
2020-07-17 17:00:00 32.1 10 Noroeste 25 Norte 0 -- -- 27
2020-07-17 16:00:00 32 9 Noroeste 28 Noroeste 0 -- -- 30
2020-07-17 15:00:00 31.3 9 Noroeste 26 Norte 0 -- -- 35
2020-07-17 14:00:00 30 8 Noroeste 25 Norte 0 -- -- 38
2020-07-17 13:00:00 28.3 8 Noroeste 31 Oeste 0 -- -- 41
2020-07-17 12:00:00 26.3 9 Noroeste 28 Oeste 0 -- -- 43
2020-07-17 11:00:00 24.5 12 Oeste 33 Oeste 0 -- -- 47
2020-07-17 10:00:00 22.2 17 Oeste 40 Oeste 0 -- -- 52
2020-07-17 09:00:00 20.5 16 Oeste 33 Oeste 0 -- -- 57
2020-07-17 08:00:00 17.9 15 Oeste 23 Oeste 0 -- -- 65
2020-07-17 07:00:00 16.4 6 Sudoeste 21 Oeste 0 -- -- 70
2020-07-17 06:00:00 17.2 7 Noroeste 25 Noroeste 0 -- -- 66
2020-07-17 05:00:00 17.6 5 Noroeste 16 Oeste 0 -- -- 66
2020-07-17 04:00:00 18.1 5 Noroeste 22 Noroeste 0 -- -- 63
2020-07-17 03:00:00 19.4 10 Noroeste 30 Noroeste 0 -- -- 59
2020-07-17 02:00:00 19.8 7 Noroeste 22 Noroeste 0 -- -- 56
2020-07-17 01:00:00 20.5 5 Noroeste 22 Noroeste 0 -- -- 52
2020-07-17 00:00:00 22.8 7 Noroeste 30 Oeste 0 -- -- 47
2020-07-16 23:00:00 24.1 20 Oeste 30 Oeste 0 -- -- 45
2020-07-16 22:00:00 25.3 9 Noroeste 22 Noroeste 0 -- -- 40
2020-07-16 21:00:00 27.4 9 Noroeste 23 Oeste 0 -- -- 36
2020-07-16 20:00:00 29.9 6 Noroeste 24 Noroeste 0 -- -- 29
2020-07-16 19:00:00 31.2 7 Noroeste 27 Norte 0 -- -- 32
2020-07-16 18:00:00 32.3 6 Noroeste 28 Norte 0 -- -- 30
2020-07-16 17:00:00 32.7 6 Noroeste 26 Norte 0 -- -- 30
2020-07-16 16:00:00 31.9 6 Noroeste 23 Noroeste 0 -- -- 31
2020-07-16 15:00:00 30.6 7 Noroeste 23 Norte 0 -- -- 33
2020-07-16 14:00:00 29.7 7 Noroeste 23 Noroeste 0 -- -- 35
2020-07-16 13:00:00 28.2 8 Noroeste 24 Noroeste 0 -- -- 37
2020-07-16 12:00:00 26.2 9 Noroeste 28 Noroeste 0 -- -- 40
2020-07-16 11:00:00 24.3 9 Noroeste 27 Norte 0 -- -- 45
2020-07-16 10:00:00 22.3 11 Noroeste 33 Oeste 0 -- -- 50
2020-07-16 09:00:00 20.4 13 Noroeste 34 Oeste 0 -- -- 54
2020-07-16 08:00:00 17.3 15 Oeste 23 Oeste 0 -- -- 63
2020-07-16 07:00:00 15.8 12 Sudoeste 22 Oeste 0 -- -- 67
2020-07-16 06:00:00 16.2 9 Sudoeste 25 Oeste 0 -- -- 64
2020-07-16 05:00:00 16.8 12 Oeste 27 Oeste 0 -- -- 61
2020-07-16 04:00:00 17.3 18 Oeste 31 Oeste 0 -- -- 60
2020-07-16 03:00:00 18 16 Sudoeste 34 Oeste 0 -- -- 54
2020-07-16 02:00:00 18.8 18 Oeste 33 Oeste 0 -- -- 50
2020-07-16 01:00:00 19.5 17 Oeste 28 Oeste 0 -- -- 48
2020-07-16 00:00:00 20.6 13 Noroeste 38 Oeste 0 -- -- 47
2020-07-15 23:00:00 21.5 15 Oeste 38 Noroeste 0 -- -- 47
2020-07-15 22:00:00 22.4 15 Noroeste 33 Noroeste 0 -- -- 46
2020-07-15 21:00:00 24.2 9 Noroeste 34 Noroeste 0 -- -- 41
2020-07-15 20:00:00 26.1 10 Noroeste 38 Norte 0 -- -- 39
2020-07-15 19:00:00 28.1 10 Noroeste 37 Noroeste 0 -- -- 37
2020-07-15 18:00:00 29.7 9 Noroeste 33 Norte 0 -- -- 35
2020-07-15 17:00:00 30.4 12 Noroeste 31 Norte 0 -- -- 34
2020-07-15 16:00:00 30.7 9 Noroeste 31 Oeste 0 -- -- 33
2020-07-15 15:00:00 30.2 9 Noroeste 28 Oeste 0 -- -- 36
2020-07-15 14:00:00 28.8 8 Noroeste 26 Norte 0 -- -- 38
2020-07-15 13:00:00 27.1 10 Noroeste 28 Oeste 0 -- -- 40
2020-07-15 12:00:00 24.8 6 Noroeste 25 Noroeste 0 -- -- 45
2020-07-15 11:00:00 24.5 16 Oeste 30 Oeste 0 -- -- 42
2020-07-15 10:00:00 22.4 11 Noroeste 34 Oeste 0 -- -- 44
2020-07-15 09:00:00 20.2 16 Oeste 32 Oeste 0 -- -- 47
2020-07-15 08:00:00 16.5 15 Oeste 26 Oeste 0 -- -- 53
2020-07-15 07:00:00 15.6 15 Oeste 23 Oeste 0 -- -- 55
2020-07-15 06:00:00 15.8 10 Sudoeste 21 Oeste 0 -- -- 54
2020-07-15 05:00:00 15.7 12 Sudoeste 19 Oeste 0 -- -- 53
2020-07-15 04:00:00 16.7 14 Oeste 25 Oeste 0 -- -- 47
2020-07-15 03:00:00 17.1 13 Oeste 23 Oeste 0 -- -- 39
2020-07-15 02:00:00 18.1 11 Oeste 21 Oeste 0 -- -- 35
2020-07-15 01:00:00 19.8 12 Oeste 30 Oeste 0 -- -- 34
2020-07-15 00:00:00 21.4 15 Oeste 29 Oeste 0 -- -- 33
2020-07-14 23:00:00 23.1 7 Noroeste 24 Oeste 0 -- -- 35
2020-07-14 22:00:00 24.9 5 Noroeste 16 Noroeste 0 -- -- 34
2020-07-14 21:00:00 27.5 5 Noroeste 22 Norte 0 -- -- 35
2020-07-14 20:00:00 28.8 3 Noroeste 14 Noroeste 0 -- -- 38
2020-07-14 19:00:00 29.5 4 Norte 17 Noroeste 0 -- -- 38
2020-07-14 18:00:00 31 7 Norte 18 Este 0 -- -- 35
2020-07-14 17:00:00 30.5 4 Norte 19 Norte 0 -- -- 31
2020-07-14 16:00:00 30.5 4 Norte 19 Noroeste 0 -- -- 31
2020-07-14 15:00:00 29.9 5 Noroeste 21 Oeste 0 -- -- 29
2020-07-14 14:00:00 28.3 8 Norte 22 Norte 0 -- -- 32
2020-07-14 13:00:00 27.4 6 Norte 27 Norte 0 -- -- 33
2020-07-14 12:00:00 25.6 8 Noroeste 24 Oeste 0 -- -- 34
2020-07-14 11:00:00 24.1 10 Noroeste 27 Oeste 0 -- -- 38
2020-07-14 10:00:00 22.5 13 Oeste 32 Oeste 0 -- -- 40
2020-07-14 09:00:00 21.1 13 Noroeste 31 Oeste 0 -- -- 43
2020-07-14 08:00:00 18.2 17 Oeste 25 Oeste 0 -- -- 46
2020-07-14 07:00:00 17.5 7 Sudoeste 26 Oeste 0 -- -- 46
2020-07-14 06:00:00 17.6 14 Oeste 28 Oeste 0 -- -- 45
2020-07-14 05:00:00 17.9 10 Oeste 24 Oeste 0 -- -- 44
2020-07-14 04:00:00 18.1 12 Oeste 21 Oeste 0 -- -- 44
2020-07-14 03:00:00 18.8 9 Oeste 16 Oeste 0 -- -- 42
2020-07-14 02:00:00 19.6 5 Noroeste 27 Oeste 0 -- -- 41
2020-07-14 01:00:00 20.6 10 Noroeste 37 Oeste 0 -- -- 40
2020-07-14 00:00:00 22.1 8 Noroeste 26 Oeste 0 -- -- 38
2020-07-13 23:00:00 24.2 16 Oeste 29 Oeste 0 -- -- 35
2020-07-13 22:00:00 25.6 17 Oeste 32 Oeste 0 -- -- 35
2020-07-13 21:00:00 27.8 10 Noroeste 28 Norte 0 -- -- 36
2020-07-13 20:00:00 30.3 9 Noroeste 31 Norte 0 -- -- 34
2020-07-13 19:00:00 32.4 9 Noroeste 28 Norte 0 -- -- 33
2020-07-13 18:00:00 33.9 8 Noroeste 28 Norte 0 -- -- 32
2020-07-13 17:00:00 34.7 7 Noroeste 24 Oeste 0 -- -- 33
2020-07-13 16:00:00 34.4 8 Noroeste 19 Norte 0 -- -- 33
2020-07-13 15:00:00 33 5 Noroeste 18 Norte 0 -- -- 38
2020-07-13 14:00:00 32.8 9 Oeste 22 Oeste 0 -- -- 37
2020-07-13 13:00:00 31.2 7 Oeste 19 Norte 0 -- -- 39
2020-07-13 12:00:00 29.1 6 Noroeste 18 Noroeste 0 -- -- 44
2020-07-13 11:00:00 27.3 6 Noroeste 20 Oeste 0 -- -- 48
2020-07-13 10:00:00 25.1 7 Noroeste 26 Oeste 0 -- -- 54
2020-07-13 09:00:00 23 7 Noroeste 20 Noroeste 0 -- -- 62
2020-07-13 08:00:00 21.4 6 Noroeste 22 Oeste 0 -- -- 71
2020-07-13 07:00:00 18.8 11 Oeste 18 Oeste 0 -- -- 78
2020-07-13 06:00:00 19.1 8 Oeste 14 Oeste 0 -- -- 74
2020-07-13 05:00:00 19.3 3 Oeste 8 Noroeste 0 -- -- 70
2020-07-13 04:00:00 20.4 5 Noroeste 23 Oeste 0 -- -- 66
2020-07-13 03:00:00 20.8 12 Noroeste 24 Oeste 0 -- -- 64
2020-07-13 02:00:00 20.4 9 Sudoeste 17 Oeste 0 -- -- 82
2020-07-13 01:00:00 20.8 11 Oeste 18 Oeste 0 -- -- 76
2020-07-13 00:00:00 22 0 Calma 9 Este 0 -- -- 70
2020-07-12 23:00:00 22.4 5 Este 16 Nordeste 0 -- -- 68
2020-07-12 22:00:00 23.6 10 Nordeste 20 Este 0 -- -- 63
2020-07-12 21:00:00 26.4 13 Este 19 Este 0 -- -- 50
2020-07-12 20:00:00 26.1 4 Norte 21 Este 0 -- -- 52
2020-07-12 19:00:00 25.5 15 Este 24 Este 0 -- -- 58
2020-07-12 18:00:00 26.5 18 Sur 34 Sur 0 -- -- 49
2020-07-12 17:00:00 27.1 14 Sudeste 21 Sudeste 0 -- -- 52
2020-07-12 16:00:00 27.6 9 Sur 25 Sudeste 0 -- -- 49
2020-07-12 15:00:00 28 8 Este 16 Este 0 -- -- 53
2020-07-12 14:00:00 27.1 6 Norte 24 Nordeste 0 -- -- 58
2020-07-12 13:00:00 22.1 5 Norte 23 Noroeste 0.4 -- -- 80
2020-07-12 12:00:00 24.7 5 Noroeste 20 Noroeste 0 -- -- 64
2020-07-12 11:00:00 27.5 7 Noroeste 16 Oeste 0 -- -- 58
2020-07-12 10:00:00 25.4 4 Noroeste 13 Oeste 0 -- -- 66
2020-07-12 09:00:00 22.6 3 Noroeste 7 Norte 0 -- -- 75
2020-07-12 08:00:00 21 0 Calma 5 Sudoeste 0 -- -- 83
2020-07-12 07:00:00 19.4 3 Sur 8 Oeste 0 -- -- 87
2020-07-12 06:00:00 19.6 4 Sudoeste 6 Oeste 0 -- -- 85
2020-07-12 05:00:00 20.2 3 Sudoeste 8 Norte 0 -- -- 83
2020-07-12 04:00:00 20.6 0 Calma 8 Norte 0 -- -- 81
2020-07-12 03:00:00 21.6 2 Noroeste 6 Noroeste 0 -- -- 76
2020-07-12 02:00:00 22.6 2 Norte 14 Nordeste 0 -- -- 71
2020-07-12 01:00:00 23.6 10 Nordeste 15 Nordeste 0 -- -- 68
2020-07-12 00:00:00 24.8 11 Nordeste 16 Nordeste 0 -- -- 65
2020-07-11 23:00:00 27.1 3 Oeste 14 Nordeste 0 -- -- 56
2020-07-11 22:00:00 29 6 Nordeste 14 Este 0 -- -- 43
2020-07-11 21:00:00 30.6 7 Nordeste 15 Nordeste 0 -- -- 40
2020-07-11 20:00:00 31.5 3 Norte 15 Nordeste 0 -- -- 37
2020-07-11 19:00:00 32.2 4 Norte 14 Nordeste 0 -- -- 37
2020-07-11 18:00:00 32.2 4 Este 15 Noroeste 0 -- -- 37
2020-07-11 17:00:00 32.8 5 Norte 14 Norte 0 -- -- 36
2020-07-11 16:00:00 31.1 6 Este 19 Este 0 -- -- 40
2020-07-11 15:00:00 29.7 6 Este 18 Este 0 -- -- 43
2020-07-11 14:00:00 29.9 5 Norte 12 Noroeste 0 -- -- 45
2020-07-11 13:00:00 27.8 5 Nordeste 14 Noroeste 0 -- -- 46
2020-07-11 12:00:00 26.5 4 Noroeste 15 Norte 0 -- -- 50
2020-07-11 11:00:00 24.8 4 Noroeste 19 Norte 0 -- -- 53
2020-07-11 10:00:00 23.2 6 Noroeste 17 Noroeste 0 -- -- 58
2020-07-11 09:00:00 21.4 7 Noroeste 24 Oeste 0 -- -- 64
2020-07-11 08:00:00 18.7 13 Oeste 19 Oeste 0 -- -- 71
2020-07-11 07:00:00 17.6 12 Oeste 21 Sudoeste 0 -- -- 74
2020-07-11 06:00:00 17.8 13 Oeste 21 Oeste 0 -- -- 73
2020-07-11 05:00:00 18.1 13 Oeste 22 Oeste 0 -- -- 73
2020-07-11 04:00:00 18.5 12 Oeste 22 Oeste 0 -- -- 74
2020-07-11 03:00:00 18.9 13 Oeste 21 Oeste 0 -- -- 74
2020-07-11 02:00:00 19.4 12 Oeste 26 Oeste 0 -- -- 74
2020-07-11 01:00:00 20 13 Oeste 19 Oeste 0 -- -- 73
2020-07-11 00:00:00 20.7 8 Noroeste 34 Oeste 0 -- -- 73
2020-07-10 23:00:00 21.4 13 Oeste 27 Oeste 0 -- -- 75
2020-07-10 22:00:00 21.8 9 Oeste 44 Noroeste 6.2 -- -- 79
2020-07-10 21:00:00 28.7 12 Noroeste 33 Noroeste 0 -- -- 46
2020-07-10 20:00:00 32 9 Oeste 13 Oeste 0 -- -- 34
2020-07-10 19:00:00 33.6 4 Norte 14 Noroeste 0 -- -- 34
2020-07-10 18:00:00 34.5 5 Norte 17 Norte 0 -- -- 32
2020-07-10 17:00:00 34.3 6 Norte 22 Este 0 -- -- 34
2020-07-10 16:00:00 33.7 9 Nordeste 26 Sudeste 0 -- -- 35
2020-07-10 15:00:00 34.2 4 Norte 14 Norte 0 -- -- 37
2020-07-10 14:00:00 32.3 6 Noroeste 17 Noroeste 0 -- -- 40
2020-07-10 13:00:00 31.2 5 Norte 16 Norte 0 -- -- 44
2020-07-10 12:00:00 29.9 8 Noroeste 18 Norte 0 -- -- 47
2020-07-10 11:00:00 28 5 Norte 15 Norte 0 -- -- 51
2020-07-10 10:00:00 26.3 4 Noroeste 20 Oeste 0 -- -- 57
2020-07-10 09:00:00 24.1 10 Oeste 24 Oeste 0 -- -- 62
2020-07-10 08:00:00 20.4 6 Oeste 12 Oeste 0 -- -- 67
2020-07-10 07:00:00 19.1 7 Oeste 13 Oeste 0 -- -- 68
2020-07-10 06:00:00 19.6 10 Sudoeste 15 Sudoeste 0 -- -- 66
2020-07-10 05:00:00 19.8 9 Oeste 17 Sudoeste 0 -- -- 65
2020-07-10 04:00:00 20.1 10 Sudoeste 14 Sudoeste 0 -- -- 65
2020-07-10 03:00:00 21.3 4 Sudoeste 8 Sudeste 0 -- -- 62
2020-07-10 02:00:00 22.2 7 Sudeste 11 Sudeste 0 -- -- 60
2020-07-10 01:00:00 23.1 4 Sudeste 10 Norte 0 -- -- 56
2020-07-10 00:00:00 25.1 4 Norte 30 Oeste 0 -- -- 48
2020-07-09 23:00:00 26 23 Oeste 56 Oeste 0 -- -- 47
2020-07-09 22:00:00 29.3 11 Sudeste 15 Sudeste 0 -- -- 45
2020-07-09 21:00:00 31.1 6 Nordeste 14 Nordeste 0 -- -- 40
2020-07-09 20:00:00 32.3 8 Nordeste 21 Este 0 -- -- 35
2020-07-09 19:00:00 33.1 12 Este 23 Este 0 -- -- 37
2020-07-09 18:00:00 34.2 6 Nordeste 17 Noroeste 0 -- -- 36
2020-07-09 17:00:00 33.2 4 Noroeste 16 Nordeste 0 -- -- 40
2020-07-09 16:00:00 33.1 4 Sudeste 16 Oeste 0 -- -- 43
2020-07-09 15:00:00 31.8 8 Oeste 15 Oeste 0 -- -- 50
2020-07-09 14:00:00 29 3 Noroeste 22 Sudeste 0 -- -- 52
2020-07-09 13:00:00 29.3 6 Este 15 Sudoeste 0 -- -- 53
2020-07-09 12:00:00 28.1 5 Norte 13 Este 0 -- -- 59
2020-07-09 11:00:00 27.9 8 Nordeste 21 Nordeste 0 -- -- 60
2020-07-09 10:00:00 26.9 7 Nordeste 19 Este 0 -- -- 64
2020-07-09 09:00:00 25.4 6 Este 13 Nordeste 0 -- -- 64
2020-07-09 08:00:00 22.2 4 Sudoeste 11 Oeste 0 -- -- 72
2020-07-09 07:00:00 21.4 3 Sur 9 Sudeste 0 -- -- 77
2020-07-09 06:00:00 21.9 2 Sur 31 Oeste 0 -- -- 79
2020-07-09 05:00:00 21.4 18 Oeste 32 Oeste 0 -- -- 84
2020-07-09 04:00:00 22.4 2 Noroeste 9 Oeste 0 -- -- 79
2020-07-09 03:00:00 23.3 4 Sudeste 25 Este 0 -- -- 76
2020-07-09 02:00:00 23.9 14 Nordeste 24 Nordeste 0 -- -- 73
2020-07-09 01:00:00 25.7 18 Este 34 Este 0 -- -- 59
2020-07-09 00:00:00 28.2 15 Nordeste 50 Sudoeste 0 -- -- 52
2020-07-08 23:00:00 30.6 20 Sudoeste 42 Sur 0 -- -- 30
2020-07-08 22:00:00 29.6 25 Sur 34 Sur 0 -- -- 39
2020-07-08 21:00:00 27.2 7 Sur 26 Oeste 0 -- -- 49
2020-07-08 20:00:00 30.9 5 Noroeste 21 Este 0 -- -- 47
2020-07-08 19:00:00 31.9 12 Nordeste 26 Este 0 -- -- 44
2020-07-08 18:00:00 32.6 16 Nordeste 25 Este 0 -- -- 39
2020-07-08 17:00:00 34.6 8 Nordeste 21 Nordeste 0 -- -- 32
2020-07-08 16:00:00 33.3 12 Este 25 Este 0 -- -- 34
2020-07-08 15:00:00 32 15 Este 26 Este 0 -- -- 36
2020-07-08 14:00:00 30.4 12 Sudeste 27 Este 0 -- -- 36
2020-07-08 13:00:00 28.5 6 Nordeste 17 Oeste 0 -- -- 41
2020-07-08 12:00:00 28.8 14 Oeste 31 Oeste 0 -- -- 40
2020-07-08 11:00:00 27.2 5 Norte 15 Norte 0 -- -- 41
2020-07-08 10:00:00 24.9 4 Noroeste 12 Norte 0 -- -- 46
2020-07-08 09:00:00 22.3 4 Oeste 6 Oeste 0 -- -- 52
2020-07-08 08:00:00 18.5 5 Sudoeste 8 Sudoeste 0 -- -- 62
2020-07-08 07:00:00 17.5 3 Sudoeste 4 Sudoeste 0 -- -- 61
2020-07-08 06:00:00 18.5 0 Calma 4 Sudoeste 0 -- -- 52
2020-07-08 05:00:00 19.3 3 Sudeste 9 Sudoeste 0 -- -- 64
2020-07-08 04:00:00 19.6 5 Sudoeste 10 Sudoeste 0 -- -- 46
2020-07-08 03:00:00 20.5 3 Sudoeste 7 Sudoeste 0 -- -- 39
2020-07-08 02:00:00 21.5 6 Sudoeste 14 Oeste 0 -- -- 37
2020-07-08 01:00:00 22.4 7 Sudoeste 12 Sudoeste 0 -- -- 35
2020-07-08 00:00:00 23.6 7 Sudoeste 14 Oeste 0 -- -- 34